Time;durP1;ratioP1;P1;durP2;ratioP2;P2;SDS_P1;SDS_P2;PMS_P1;PMS_P2;Temp;Humidity;BMP_temperature;BMP_pressure;BME280_temperature;BME280_humidity;BME280_pressure;Samples;Min_cycle;Max_cycle;Signal;HPM_P1;HPM_P2
2023/09/14 00:01:13;;;;;;;6.67;5.10;;;;;;;17.03;100.00;98539.53;4936775;29;20243;-79
2023/09/14 00:03:40;;;;;;;6.80;5.30;;;;;;;16.97;100.00;98540.94;4936630;29;20208;-79
2023/09/14 00:06:06;;;;;;;6.27;4.73;;;;;;;16.85;100.00;98531.34;4936405;29;20212;-79
2023/09/14 00:08:33;;;;;;;7.37;5.70;;;;;;;16.77;100.00;98536.50;4936679;29;20212;-79
2023/09/14 00:11:04;;;;;;;8.77;5.53;;;;;;;16.71;100.00;98538.88;4936406;29;20239;-79
2023/09/14 00:13:31;;;;;;;8.70;5.20;;;;;;;16.65;100.00;98540.22;4936682;29;20220;-79
2023/09/14 00:15:57;;;;;;;6.50;5.20;;;;;;;16.62;100.00;98537.84;4937015;29;20234;-79
2023/09/14 00:18:25;;;;;;;6.57;5.67;;;;;;;16.66;100.00;98539.28;4936373;29;20216;-79
2023/09/14 00:20:53;;;;;;;6.43;5.13;;;;;;;16.59;100.00;98532.75;4936253;29;20228;-79
2023/09/14 00:23:20;;;;;;;7.13;6.03;;;;;;;16.56;100.00;98530.38;4936204;29;20737;-79
2023/09/14 00:25:46;;;;;;;8.80;5.57;;;;;;;16.58;100.00;98533.75;4936542;29;20315;-79
2023/09/14 00:28:13;;;;;;;9.27;6.03;;;;;;;16.58;100.00;98533.75;4936904;29;20208;-79
2023/09/14 00:30:39;;;;;;;9.20;6.17;;;;;;;16.53;100.00;98530.63;4936262;29;20215;-79
2023/09/14 00:33:05;;;;;;;7.17;5.70;;;;;;;16.56;100.00;98532.19;4936366;29;20212;-79
2023/09/14 00:35:33;;;;;;;8.63;6.50;;;;;;;16.51;100.00;98537.09;4936142;29;20208;-79
2023/09/14 00:38:00;;;;;;;8.63;6.10;;;;;;;16.48;100.00;98538.22;4936139;29;20215;-79
2023/09/14 00:40:26;;;;;;;6.83;6.10;;;;;;;16.46;100.00;98541.97;4935735;29;20236;-79
2023/09/14 00:42:53;;;;;;;9.20;7.00;;;;;;;16.43;100.00;98543.09;4936336;29;20212;-79
2023/09/14 00:45:21;;;;;;;7.23;5.83;;;;;;;16.36;100.00;98539.22;4936453;29;20212;-79
2023/09/14 00:47:49;;;;;;;8.40;5.73;;;;;;;16.38;100.00;98547.13;4936155;29;20293;-79
2023/09/14 00:50:17;;;;;;;9.90;6.60;;;;;;;16.44;100.00;98541.25;4936141;29;20219;-79
2023/09/14 00:52:47;;;;;;;8.97;6.83;;;;;;;16.43;100.00;98551.09;4936173;29;20231;-79
2023/09/14 00:55:17;;;;;;;9.23;6.43;;;;;;;16.39;100.00;98543.50;4936400;29;20633;-79
2023/09/14 00:57:44;;;;;;;8.60;6.50;;;;;;;16.33;100.00;98552.81;4936160;29;20211;-79
2023/09/14 01:00:12;;;;;;;8.27;6.20;;;;;;;16.28;100.00;98549.69;4935817;29;20236;-79
2023/09/14 01:02:41;;;;;;;9.13;6.63;;;;;;;16.24;100.00;98550.09;4935688;29;20250;-79
2023/09/14 01:05:08;;;;;;;9.40;6.53;;;;;;;16.23;100.00;98548.41;4935849;29;20675;-79
2023/09/14 01:07:34;;;;;;;8.77;6.53;;;;;;;16.22;100.00;98552.88;4936133;29;20216;-79
2023/09/14 01:10:04;;;;;;;8.80;6.70;;;;;;;16.26;100.00;98543.66;4936030;29;20215;-79
2023/09/14 01:12:32;;;;;;;8.33;6.50;;;;;;;16.20;100.00;98552.19;4935686;29;20271;-79
2023/09/14 01:15:06;;;;;;;11.33;7.03;;;;;;;16.12;100.00;98556.47;4936486;29;20212;-79
2023/09/14 01:17:39;;;;;;;8.63;6.87;;;;;;;16.08;100.00;98548.88;4946005;29;20215;-79
2023/09/14 01:20:24;;;;;;;9.73;6.63;;;;;;;16.07;100.00;98547.19;4955032;28;20376;-79
2023/09/14 01:23:05;;;;;;;9.00;6.87;;;;;;;15.99;100.00;98542.47;4954981;28;20243;-79
2023/09/14 01:25:42;;;;;;;10.00;6.97;;;;;;;15.98;100.00;98549.63;4954896;28;20670;-79
2023/09/14 01:28:10;;;;;;;8.73;6.73;;;;;;;15.93;100.00;98547.47;4954922;28;20215;-79
2023/09/14 01:30:37;;;;;;;9.10;7.07;;;;;;;15.90;100.00;98550.41;4954542;28;20323;-79
2023/09/14 01:33:05;;;;;;;9.43;6.90;;;;;;;15.94;100.00;98558.03;4955373;28;20223;-79
2023/09/14 01:35:37;;;;;;;9.40;7.00;;;;;;;15.90;100.00;98556.59;4955027;28;20286;-79
2023/09/14 01:38:04;;;;;;;8.97;6.83;;;;;;;15.87;100.00;98556.00;4955362;28;20210;-79
2023/09/14 01:40:34;;;;;;;10.67;6.80;;;;;;;15.83;100.00;98559.91;4954704;28;20235;-79
2023/09/14 01:43:02;;;;;;;8.83;6.60;;;;;;;15.84;100.00;98561.59;4954673;28;20215;-79
2023/09/14 01:45:30;;;;;;;10.90;7.27;;;;;;;15.85;100.00;98557.94;4955048;28;20212;-79
2023/09/14 01:47:57;;;;;;;11.07;7.30;;;;;;;15.83;100.00;98559.91;4954749;28;20218;-79
2023/09/14 01:50:23;;;;;;;10.53;7.00;;;;;;;15.76;100.00;98556.06;4954982;28;20603;-79
2023/09/14 01:52:52;;;;;;;8.93;6.77;;;;;;;15.73;100.00;98551.84;4955255;28;20227;-79
2023/09/14 01:55:18;;;;;;;8.57;6.70;;;;;;;15.75;100.00;98557.00;4954698;28;20249;-79
2023/09/14 01:57:46;;;;;;;8.60;6.57;;;;;;;15.70;100.00;98556.56;4955025;28;20216;-79
2023/09/14 02:00:15;;;;;;;9.33;6.53;;;;;;;15.68;100.00;98562.03;4954642;28;20227;-79
2023/09/14 02:02:41;;;;;;;7.50;5.90;;;;;;;15.62;100.00;98559.00;4954377;28;20330;-79
2023/09/14 02:05:08;;;;;;;8.63;6.93;;;;;;;15.61;100.00;98559.97;4954794;28;20214;-79
2023/09/14 02:07:35;;;;;;;9.70;6.57;;;;;;;15.58;100.00;98565.59;4954855;28;20212;-79
2023/09/14 02:10:01;;;;;;;10.57;7.33;;;;;;;15.56;100.00;98567.50;4954500;28;20231;-79
2023/09/14 02:12:28;;;;;;;10.83;6.87;;;;;;;15.53;100.00;98559.78;4954726;28;20235;-79
2023/09/14 02:14:54;;;;;;;10.70;6.80;;;;;;;15.49;100.00;98558.31;4954977;28;20219;-79
2023/09/14 02:17:22;;;;;;;11.50;7.00;;;;;;;15.50;100.00;98566.19;4954713;28;20208;-79
2023/09/14 02:19:48;;;;;;;8.83;6.50;;;;;;;15.52;100.00;98566.09;4954499;28;20235;-79
2023/09/14 02:22:15;;;;;;;9.27;7.00;;;;;;;15.54;100.00;98551.66;4958063;28;20603;-79
2023/09/14 02:24:41;;;;;;;9.73;7.10;;;;;;;15.51;100.00;98557.22;4958461;28;20578;-79
2023/09/14 02:27:08;;;;;;;8.90;6.40;;;;;;;15.47;100.00;98553.13;4958236;28;20233;-79
2023/09/14 02:29:34;;;;;;;11.00;6.93;;;;;;;15.52;100.00;98560.75;4958125;28;20218;-79
2023/09/14 02:32:01;;;;;;;8.97;7.10;;;;;;;15.50;100.00;98565.34;4957929;28;20235;-79
2023/09/14 02:34:28;;;;;;;8.47;6.30;;;;;;;15.49;100.00;98563.66;4958025;28;20226;-79
2023/09/14 02:36:55;;;;;;;10.90;7.83;;;;;;;15.47;100.00;98561.09;4957407;28;20212;-79
2023/09/14 02:39:21;;;;;;;9.50;6.93;;;;;;;15.52;100.00;98566.09;4957266;28;20231;-79
2023/09/14 02:41:48;;;;;;;9.17;6.90;;;;;;;15.55;100.00;98563.16;4957215;28;20239;-79
2023/09/14 02:44:14;;;;;;;8.40;6.60;;;;;;;15.57;100.00;98559.41;4957327;28;20211;-79
2023/09/14 02:46:41;;;;;;;8.63;6.67;;;;;;;15.63;100.00;98563.38;4957245;28;20216;-79
2023/09/14 02:49:07;;;;;;;9.03;6.60;;;;;;;15.71;100.00;98571.59;4957676;28;20212;-79
2023/09/14 02:51:35;;;;;;;8.17;6.03;;;;;;;15.77;100.00;98571.06;4956841;28;20231;-79
2023/09/14 02:54:02;;;;;;;9.33;5.77;;;;;;;15.75;100.00;98567.66;4957066;28;20239;-79
2023/09/14 02:56:28;;;;;;;7.90;5.67;;;;;;;15.72;100.00;98567.94;4957397;28;20208;-79
2023/09/14 02:58:55;;;;;;;7.53;5.97;;;;;;;15.74;100.00;98571.31;4957292;28;20215;-79
2023/09/14 03:01:21;;;;;;;7.00;5.80;;;;;;;15.70;100.00;98567.22;4956151;28;20235;-79
2023/09/14 03:03:48;;;;;;;7.70;5.03;;;;;;;15.74;100.00;98569.50;4956932;28;20211;-79
2023/09/14 03:06:14;;;;;;;7.70;5.50;;;;;;;15.64;100.00;98565.06;4956580;28;20215;-79
2023/09/14 03:08:42;;;;;;;7.47;5.70;;;;;;;15.64;100.00;98568.56;4956610;28;20222;-79
2023/09/14 03:11:09;;;;;;;6.33;5.13;;;;;;;15.66;100.00;98571.97;4956742;28;20736;-79
2023/09/14 03:13:35;;;;;;;6.77;5.57;;;;;;;15.61;100.00;98570.63;4957120;28;20580;-79
2023/09/14 03:16:02;;;;;;;8.10;5.37;;;;;;;15.62;100.00;98575.00;4956979;28;20239;-79
2023/09/14 03:18:28;;;;;;;8.77;5.10;;;;;;;15.60;100.00;98579.59;4956785;28;20211;-79
2023/09/14 03:20:56;;;;;;;6.53;4.93;;;;;;;15.64;100.00;98578.41;4956090;28;20235;-79
2023/09/14 03:23:23;;;;;;;5.60;4.93;;;;;;;15.55;100.00;98584.47;4956723;28;20223;-79
2023/09/14 03:25:51;;;;;;;6.60;4.77;;;;;;;15.52;100.00;98577.56;4956886;28;20231;-79
2023/09/14 03:28:18;;;;;;;6.77;5.07;;;;;;;15.49;100.00;98579.63;4956537;28;20705;-79
2023/09/14 03:30:45;;;;;;;8.03;5.20;;;;;;;15.46;100.00;98583.41;4955954;28;20730;-79
2023/09/14 03:33:12;;;;;;;6.00;5.07;;;;;;;15.46;100.00;98582.56;4956197;28;20216;-79
2023/09/14 03:35:38;;;;;;;6.97;5.53;;;;;;;15.44;100.00;98590.69;4956114;28;20212;-79
2023/09/14 03:38:05;;;;;;;7.60;5.50;;;;;;;15.42;100.00;98589.97;4956053;28;20223;-79
2023/09/14 03:40:32;;;;;;;6.37;5.07;;;;;;;15.43;100.00;98594.31;4956307;28;20251;-79
2023/09/14 03:43:00;;;;;;;6.10;4.63;;;;;;;15.44;100.00;98592.47;4956196;28;20218;-79
2023/09/14 03:45:26;;;;;;;6.40;5.03;;;;;;;15.49;100.00;98592.97;4956002;28;20667;-79
2023/09/14 03:47:55;;;;;;;6.33;4.93;;;;;;;15.46;100.00;98594.06;4955796;28;20207;-79
2023/09/14 03:50:21;;;;;;;6.17;5.17;;;;;;;15.49;100.00;98579.63;4956049;28;20599;-79
2023/09/14 03:52:48;;;;;;;8.03;6.03;;;;;;;15.46;100.00;98587.91;4955610;28;20658;-79
2023/09/14 03:55:15;;;;;;;9.33;6.20;;;;;;;15.47;100.00;98594.91;4956107;28;20610;-79
2023/09/14 03:57:46;;;;;;;8.70;6.60;;;;;;;15.43;100.00;98582.81;4956652;28;20216;-79
2023/09/14 04:00:16;;;;;;;10.63;6.90;;;;;;;15.43;100.00;98588.13;4955676;29;20326;-79
2023/09/14 04:02:42;;;;;;;8.63;6.67;;;;;;;15.42;100.00;98589.09;4955160;28;20243;-79
2023/09/14 04:05:14;;;;;;;9.67;6.67;;;;;;;15.42;100.00;98589.09;4956019;28;20248;-79
2023/09/14 04:07:40;;;;;;;10.17;6.83;;;;;;;15.41;100.00;98590.09;4955975;28;20637;-79
2023/09/14 04:10:10;;;;;;;10.00;7.40;;;;;;;15.37;100.00;98591.28;4956043;28;20208;-79
2023/09/14 04:12:37;;;;;;;9.40;7.00;;;;;;;15.32;100.00;98593.44;4955672;28;20235;-79
2023/09/14 04:15:04;;;;;;;8.50;6.00;;;;;;;15.27;100.00;98593.81;4955416;28;20219;-79
2023/09/14 04:17:32;;;;;;;10.27;6.80;;;;;;;15.27;100.00;98593.00;4956144;28;20211;-79
2023/09/14 04:19:58;;;;;;;10.77;7.33;;;;;;;15.25;100.00;98602.91;4955497;28;20235;-79
2023/09/14 04:22:24;;;;;;;9.97;7.40;;;;;;;15.22;100.00;98600.50;4955627;28;20242;-79
2023/09/14 04:24:51;;;;;;;8.30;6.90;;;;;;;15.17;100.00;98598.22;4955859;28;20211;-79
2023/09/14 04:27:17;;;;;;;9.83;7.10;;;;;;;15.11;100.00;98603.19;4955211;28;20215;-79
2023/09/14 04:29:44;;;;;;;9.50;7.07;;;;;;;15.17;100.00;98608.88;4955498;28;20658;-79
2023/09/14 04:32:11;;;;;;;10.93;7.63;;;;;;;15.10;100.00;98604.16;4955397;28;20232;-79
2023/09/14 04:34:39;;;;;;;10.57;7.60;;;;;;;15.07;100.00;98604.38;4955532;28;20271;-79
2023/09/14 04:37:05;;;;;;;12.20;7.80;;;;;;;15.09;100.00;98615.78;4955604;28;20211;-79
2023/09/14 04:39:31;;;;;;;10.53;7.63;;;;;;;15.05;100.00;98609.00;4955412;28;20641;-79
2023/09/14 04:41:58;;;;;;;11.10;7.57;;;;;;;15.07;100.00;98615.03;4954692;28;20629;-79
2023/09/14 04:44:24;;;;;;;12.10;8.70;;;;;;;15.09;100.00;98618.44;4954903;28;20557;-79
2023/09/14 04:46:51;;;;;;;10.20;8.13;;;;;;;15.07;100.00;98621.22;4955443;28;20230;-79
2023/09/14 04:49:17;;;;;;;12.03;8.07;;;;;;;15.02;100.00;98617.22;4955480;28;20234;-79
2023/09/14 04:51:47;;;;;;;9.10;6.90;;;;;;;14.98;100.00;98623.75;4955140;28;20223;-79
2023/09/14 04:54:14;;;;;;;10.77;7.80;;;;;;;14.94;100.00;98622.28;4955420;28;20225;-79
2023/09/14 04:56:40;;;;;;;12.90;8.90;;;;;;;14.93;100.00;98623.28;4955534;28;20222;-79
2023/09/14 04:59:07;;;;;;;12.47;9.03;;;;;;;14.95;100.00;98616.00;4955043;28;20336;-79
2023/09/14 05:01:33;;;;;;;13.00;8.60;;;;;;;15.00;100.00;98616.50;4954074;28;20235;-79
2023/09/14 05:04:00;;;;;;;12.53;8.83;;;;;;;15.01;100.00;98618.19;4954824;28;20226;-79
2023/09/14 05:06:27;;;;;;;12.87;8.60;;;;;;;15.01;100.00;98624.34;4954773;28;20266;-79
2023/09/14 05:08:55;;;;;;;12.63;8.60;;;;;;;14.97;100.00;98616.75;4955271;28;20297;-79
2023/09/14 05:11:21;;;;;;;11.27;8.50;;;;;;;15.02;100.00;98620.72;4954593;28;20238;-79
2023/09/14 05:13:48;;;;;;;14.13;9.23;;;;;;;15.05;100.00;98620.50;4954915;28;20212;-79
2023/09/14 05:16:14;;;;;;;13.10;9.23;;;;;;;15.16;100.00;98630.28;4954805;28;20214;-79
2023/09/14 05:18:45;;;;;;;14.10;10.30;;;;;;;15.28;100.00;98627.47;4954939;28;20214;-79
2023/09/14 05:21:12;;;;;;;13.93;9.57;;;;;;;15.43;100.00;98634.28;4954310;28;20625;-79
2023/09/14 05:23:38;;;;;;;12.77;9.43;;;;;;;15.54;100.00;98633.41;4954405;28;20250;-79
2023/09/14 05:26:06;;;;;;;11.47;8.93;;;;;;;15.60;100.00;98633.75;4954761;28;20222;-79
2023/09/14 05:28:33;;;;;;;12.67;9.10;;;;;;;15.72;100.00;98637.22;4954758;28;20207;-79
2023/09/14 05:30:59;;;;;;;12.20;9.00;;;;;;;15.84;100.00;98639.75;4954428;28;20239;-79
2023/09/14 05:33:25;;;;;;;10.63;7.83;;;;;;;16.02;100.00;98636.41;4954845;28;20654;-79
2023/09/14 05:35:52;;;;;;;9.80;7.67;;;;;;;16.02;100.00;98643.53;4954643;28;20569;-79
2023/09/14 05:38:18;;;;;;;9.47;7.13;;;;;;;16.09;100.00;98647.41;4954899;28;20223;-79
2023/09/14 05:40:46;;;;;;;8.87;5.63;;;;;;;16.17;100.00;98643.13;4954657;28;20239;-79
2023/09/14 05:43:13;;;;;;;7.13;5.60;;;;;;;16.15;100.00;98642.41;4953649;28;20310;-77
2023/09/14 05:45:41;;;;;;;6.93;5.27;;;;;;;16.26;100.00;98645.00;4953932;28;20218;-78
2023/09/14 05:48:08;;;;;;;7.17;5.30;;;;;;;16.31;100.00;98648.16;4954500;28;20295;-79
2023/09/14 05:50:35;;;;;;;6.17;4.73;;;;;;;16.32;100.00;98647.16;4953886;28;20230;-78
2023/09/14 05:53:02;;;;;;;5.60;4.70;;;;;;;16.35;100.00;98643.41;4954458;28;20640;-79
2023/09/14 05:55:28;;;;;;;6.23;4.60;;;;;;;16.41;100.00;98654.41;4955812;28;20211;-78
2023/09/14 05:57:55;;;;;;;5.77;4.53;;;;;;;16.41;100.00;98646.41;4958508;28;20212;-78
2023/09/14 06:00:23;;;;;;;6.27;5.10;;;;;;;16.45;100.00;98655.84;4958114;28;20235;-78
2023/09/14 06:02:49;;;;;;;5.87;4.70;;;;;;;16.48;100.00;98644.94;4957903;28;20227;-79
2023/09/14 06:05:16;;;;;;;7.70;5.63;;;;;;;16.53;100.00;98645.38;4958318;28;20283;-79
2023/09/14 06:07:42;;;;;;;6.40;5.00;;;;;;;16.62;100.00;98649.06;4957958;28;20214;-78
2023/09/14 06:10:09;;;;;;;7.73;5.20;;;;;;;16.57;100.00;98649.47;4958129;28;20565;-78
2023/09/14 06:12:35;;;;;;;7.07;5.47;;;;;;;16.60;100.00;98653.72;4957456;28;20590;-80
2023/09/14 06:15:02;;;;;;;6.80;4.73;;;;;;;16.60;100.00;98657.25;4957851;28;20675;-79
2023/09/14 06:17:30;;;;;;;5.87;4.53;;;;;;;16.62;100.00;98657.94;4957546;28;20246;-78
2023/09/14 06:19:57;;;;;;;6.17;4.90;;;;;;;16.52;100.00;98651.69;4957130;28;20673;-77
2023/09/14 06:22:23;;;;;;;4.73;3.73;;;;;;;16.57;100.00;98664.66;4955897;28;20250;-78
2023/09/14 06:24:50;;;;;;;5.90;4.23;;;;;;;16.55;100.00;98656.78;4956843;28;20216;-79
2023/09/14 06:27:16;;;;;;;4.93;3.90;;;;;;;16.54;100.00;98670.25;4957825;28;20266;-79
2023/09/14 06:29:43;;;;;;;5.70;4.15;;;;;;;16.55;100.00;98672.78;4957378;28;20446;-80
2023/09/14 06:32:09;;;;;;;4.40;3.40;;;;;;;16.58;100.00;98659.16;4959240;28;20227;-78
2023/09/14 06:34:37;;;;;;;4.73;3.47;;;;;;;16.58;100.00;98656.50;4959215;28;20222;-82
2023/09/14 06:37:04;;;;;;;4.23;3.57;;;;;;;16.55;100.00;98656.78;4959606;28;20300;-81
2023/09/14 06:39:30;;;;;;;4.13;3.23;;;;;;;16.59;100.00;98660.84;4959411;28;20220;-82
2023/09/14 06:41:57;;;;;;;4.33;3.37;;;;;;;16.62;100.00;98659.75;4960794;28;20242;-84
2023/09/14 06:44:25;;;;;;;4.30;3.10;;;;;;;16.65;100.00;98668.34;4961268;28;20207;-81
2023/09/14 06:46:52;;;;;;;5.10;3.37;;;;;;;16.71;100.00;98665.16;4956412;28;20302;-81
2023/09/14 06:49:19;;;;;;;5.73;3.47;;;;;;;16.82;100.00;98662.41;4956597;28;20694;-81
2023/09/14 06:51:47;;;;;;;4.30;3.37;;;;;;;16.72;100.00;98669.53;4957131;28;20231;-81
2023/09/14 06:54:14;;;;;;;3.77;3.20;;;;;;;16.74;100.00;98670.25;4956912;28;20208;-81
2023/09/14 06:56:40;;;;;;;4.17;3.60;;;;;;;16.78;100.00;98671.69;4957152;28;20218;-81
2023/09/14 06:59:07;;;;;;;5.63;3.50;;;;;;;16.87;100.00;98673.56;4956936;28;20674;-81
2023/09/14 07:01:33;;;;;;;4.30;3.87;;;;;;;16.98;100.00;98669.94;4956551;28;20311;-81
2023/09/14 07:04:00;;;;;;;4.97;3.50;;;;;;;17.08;100.00;98663.66;4956986;28;20207;-81
2023/09/14 07:06:27;;;;;;;5.23;3.40;;;;;;;17.14;100.00;98664.97;4956369;28;20211;-81
2023/09/14 07:08:55;;;;;;;4.00;3.47;;;;;;;17.14;100.00;98657.78;4956389;28;20566;-81
2023/09/14 07:11:21;;;;;;;5.17;3.10;;;;;;;17.24;100.00;98661.38;4956263;28;20748;-81
2023/09/14 07:13:47;;;;;;;4.83;3.60;;;;;;;17.22;100.00;98667.81;4956492;28;20314;-81
2023/09/14 07:16:14;;;;;;;5.07;3.47;;;;;;;17.32;100.00;98671.38;4956393;28;20251;-81
2023/09/14 07:18:41;;;;;;;4.60;3.17;;;;;;;17.34;100.00;98672.09;4956460;28;20219;-81
2023/09/14 07:21:08;;;;;;;4.00;3.03;;;;;;;17.39;100.00;98664.53;4956403;28;20239;-81
2023/09/14 07:23:34;;;;;;;4.30;3.30;;;;;;;17.46;100.00;98671.91;4956978;28;20208;-81
2023/09/14 07:26:04;;;;;;;4.03;3.20;;;;;;;17.60;100.00;98658.16;4956270;28;20631;-81
2023/09/14 07:28:30;;;;;;;4.03;3.20;;;;;;;17.62;100.00;98666.03;4956272;28;20562;-81
2023/09/14 07:30:57;;;;;;;5.40;3.40;;;;;;;17.79;100.00;98663.53;4955564;28;20227;-81
2023/09/14 07:33:25;;;;;;;4.87;3.83;;;;;;;17.77;100.00;98667.31;4956156;28;20670;-81
2023/09/14 07:35:52;;;;;;;3.97;3.40;;;;;;;17.87;100.00;98670.88;4956420;28;20262;-81
2023/09/14 07:38:18;;;;;;;4.93;3.60;;;;;;;17.98;100.00;98663.56;4954930;28;20207;-81
2023/09/14 07:40:45;;;;;;;5.90;4.17;;;;;;;18.08;100.00;98666.22;4955376;28;20238;-81
2023/09/14 07:43:13;;;;;;;5.27;3.60;;;;;;;18.12;100.00;98665.84;4955588;28;20585;-81
2023/09/14 07:45:39;;;;;;;3.70;3.10;;;;;;;18.13;100.00;98672.88;4956092;28;20211;-81
2023/09/14 07:48:08;;;;;;;3.80;3.37;;;;;;;18.16;100.00;98677.09;4955896;28;20211;-81
2023/09/14 07:50:36;;;;;;;4.70;3.80;;;;;;;18.38;99.99;98669.69;4955630;28;20222;-81
2023/09/14 07:53:03;;;;;;;5.40;3.90;;;;;;;18.33;99.38;98671.91;4955710;28;20272;-81
2023/09/14 07:55:30;;;;;;;4.33;3.27;;;;;;;18.39;100.00;98674.03;4955848;28;20207;-81
2023/09/14 07:57:56;;;;;;;5.57;3.90;;;;;;;18.55;99.67;98685.03;4955401;28;20212;-81
2023/09/14 08:00:25;;;;;;;4.83;3.30;;;;;;;18.62;99.91;98682.59;4955269;28;20579;-81
2023/09/14 08:02:51;;;;;;;5.87;3.80;;;;;;;18.75;98.63;98684.00;4955280;28;20630;-81
2023/09/14 08:05:18;;;;;;;4.47;3.60;;;;;;;18.79;97.11;98682.75;4955869;28;20227;-81
2023/09/14 08:07:45;;;;;;;5.23;3.73;;;;;;;18.83;96.71;98676.09;4955539;28;20544;-81
2023/09/14 08:10:11;;;;;;;4.87;3.30;;;;;;;18.83;97.33;98684.13;4955727;28;20215;-81
2023/09/14 08:12:38;;;;;;;4.70;3.80;;;;;;;18.87;97.62;98687.34;4955392;28;20237;-81
2023/09/14 08:15:05;;;;;;;4.97;3.43;;;;;;;19.00;98.47;98686.06;4955686;28;20208;-81
2023/09/14 08:17:33;;;;;;;4.20;3.63;;;;;;;19.12;96.35;98684.03;4954975;28;20676;-81
2023/09/14 08:20:00;;;;;;;3.47;3.10;;;;;;;19.19;95.26;98686.00;4955160;28;20213;-81
2023/09/14 08:22:27;;;;;;;4.10;3.43;;;;;;;19.25;95.26;98684.59;4955094;28;20240;-81
2023/09/14 08:24:54;;;;;;;6.17;4.50;;;;;;;19.37;92.85;98681.59;4955174;28;20584;-81
2023/09/14 08:27:20;;;;;;;4.97;3.67;;;;;;;19.42;92.77;98687.38;4955420;28;20239;-81
2023/09/14 08:29:47;;;;;;;4.70;3.87;;;;;;;19.54;92.97;98686.19;4955474;28;20214;-81
2023/09/14 08:32:14;;;;;;;5.00;3.87;;;;;;;19.51;91.97;98686.47;4954869;28;20223;-81
2023/09/14 08:34:42;;;;;;;5.33;4.10;;;;;;;19.56;91.95;98694.91;4955268;28;20222;-81
2023/09/14 08:37:09;;;;;;;4.53;3.60;;;;;;;19.55;91.08;98687.88;4954771;28;20219;-81
2023/09/14 08:39:35;;;;;;;5.13;3.90;;;;;;;19.57;90.63;98685.88;4954772;28;20221;-81
2023/09/14 08:42:02;;;;;;;5.17;4.30;;;;;;;19.63;90.79;98690.66;4954666;28;20257;-81
2023/09/14 08:44:33;;;;;;;4.63;3.70;;;;;;;19.72;91.61;98695.13;4955035;28;20211;-81
2023/09/14 08:47:00;;;;;;;4.10;3.40;;;;;;;19.82;91.57;98695.06;4955183;28;20635;-81
2023/09/14 08:49:28;;;;;;;4.50;3.80;;;;;;;19.92;91.38;98699.38;4954905;28;20253;-81
2023/09/14 08:51:58;;;;;;;5.37;3.93;;;;;;;20.04;90.70;98698.19;4954671;28;20235;-81
2023/09/14 08:54:25;;;;;;;4.23;3.83;;;;;;;20.05;88.37;98694.50;4954956;28;20235;-81
2023/09/14 08:56:51;;;;;;;5.07;4.27;;;;;;;20.06;87.86;98692.69;4955000;28;20211;-81
2023/09/14 08:59:19;;;;;;;4.43;3.53;;;;;;;19.96;87.94;98695.41;4954919;28;20674;-81
2023/09/14 09:01:48;;;;;;;7.40;4.90;;;;;;;20.02;86.08;98684.06;4954624;28;20261;-81
2023/09/14 09:04:14;;;;;;;6.63;4.43;;;;;;;20.01;86.73;98689.59;4955064;28;20215;-81
2023/09/14 09:06:42;;;;;;;5.73;4.40;;;;;;;19.92;86.14;98685.97;4954746;28;20238;-81
2023/09/14 09:09:11;;;;;;;6.30;4.90;;;;;;;19.84;86.62;98688.56;4955083;28;20219;-81
2023/09/14 09:11:38;;;;;;;4.97;3.90;;;;;;;19.74;87.45;98693.13;4954348;28;20737;-81
2023/09/14 09:14:05;;;;;;;4.80;4.10;;;;;;;19.77;88.66;98694.69;4954874;28;20254;-81
2023/09/14 09:16:32;;;;;;;4.77;4.23;;;;;;;19.78;87.22;98683.81;4954910;28;20212;-81
2023/09/14 09:19:03;;;;;;;6.60;4.03;;;;;;;19.86;86.91;98686.56;4954792;28;20651;-81
2023/09/14 09:21:32;;;;;;;6.90;4.50;;;;;;;19.85;86.12;98690.25;4954153;28;20247;-81
2023/09/14 09:24:00;;;;;;;5.03;3.90;;;;;;;19.77;87.04;98676.75;4954832;28;20278;-81
2023/09/14 09:26:33;;;;;;;5.70;4.60;;;;;;;19.78;87.32;98681.13;4954446;28;20222;-81
2023/09/14 09:28:59;;;;;;;5.53;4.30;;;;;;;19.90;86.07;98682.59;4954926;28;20332;-81
2023/09/14 09:31:41;;;;;;;6.20;3.90;;;;;;;19.97;86.79;98682.81;4958458;28;20596;-81
2023/09/14 09:34:09;;;;;;;5.93;4.73;;;;;;;20.11;85.53;98677.81;4959218;28;20215;-81
2023/09/14 09:36:36;;;;;;;5.47;4.40;;;;;;;20.03;84.82;98682.22;4958128;28;20218;-81
2023/09/14 09:39:04;;;;;;;4.80;3.70;;;;;;;19.92;85.23;98674.38;4958662;28;20224;-81
2023/09/14 09:41:34;;;;;;;4.97;4.00;;;;;;;19.89;86.34;98685.44;4957702;28;20580;-81
2023/09/14 09:44:05;;;;;;;4.03;3.50;;;;;;;19.92;86.96;98685.97;4958295;28;20660;-81
2023/09/14 09:46:34;;;;;;;6.03;3.87;;;;;;;19.94;86.60;98683.13;4958019;28;20215;-81
2023/09/14 09:49:01;;;;;;;6.37;4.70;;;;;;;20.06;85.22;98682.78;4958432;28;20217;-81
2023/09/14 09:51:29;;;;;;;5.60;4.53;;;;;;;20.02;84.31;98681.41;4958205;28;20231;-81
2023/09/14 09:54:03;;;;;;;4.83;4.30;;;;;;;20.00;84.95;98682.53;4958406;28;20211;-81
2023/09/14 09:56:29;;;;;;;4.30;3.53;;;;;;;20.10;84.22;98684.19;4957971;28;20242;-81
2023/09/14 09:58:57;;;;;;;6.00;4.30;;;;;;;20.18;83.64;98678.88;4957872;28;20227;-81
2023/09/14 10:01:24;;;;;;;4.60;3.57;;;;;;;20.21;83.56;98680.44;4957828;28;20243;-82
2023/09/14 10:03:54;;;;;;;4.60;3.60;;;;;;;20.23;83.49;98684.66;4958079;28;20585;-82
2023/09/14 10:06:20;;;;;;;5.47;4.50;;;;;;;20.37;82.15;98678.75;4958298;28;20239;-81
2023/09/14 10:08:53;;;;;;;5.07;4.17;;;;;;;20.18;83.23;98686.13;4957767;28;20212;-81
2023/09/14 10:11:22;;;;;;;4.47;3.73;;;;;;;20.21;83.84;98688.47;4957677;28;20243;-81
2023/09/14 10:13:49;;;;;;;4.80;3.57;;;;;;;20.28;83.40;98676.13;4958392;28;20213;-81
2023/09/14 10:16:22;;;;;;;5.73;3.90;;;;;;;20.36;81.87;98669.00;4957927;28;20584;-81
2023/09/14 10:18:54;;;;;;;4.43;4.03;;;;;;;20.44;82.03;98676.28;4958055;28;20211;-82
2023/09/14 10:21:22;;;;;;;5.90;3.90;;;;;;;20.60;82.73;98679.13;4957133;28;20228;-81
2023/09/14 10:23:51;;;;;;;5.97;4.53;;;;;;;20.71;81.23;98668.13;4957661;28;20215;-81
2023/09/14 10:26:17;;;;;;;6.90;4.70;;;;;;;20.67;81.07;98675.66;4957626;28;20222;-81
2023/09/14 10:28:45;;;;;;;4.33;3.80;;;;;;;20.62;81.76;98674.44;4957641;28;20210;-81
2023/09/14 10:31:14;;;;;;;5.13;3.67;;;;;;;20.75;81.85;98681.09;4957237;28;20253;-81
2023/09/14 10:33:45;;;;;;;5.13;4.10;;;;;;;20.77;79.46;98660.28;4957555;28;20207;-81
2023/09/14 10:36:13;;;;;;;5.40;4.27;;;;;;;20.82;79.90;98663.34;4959001;28;20305;-81
2023/09/14 10:38:43;;;;;;;6.60;4.50;;;;;;;21.03;78.96;98663.84;4959575;28;20222;-81
2023/09/14 10:41:11;;;;;;;7.33;4.10;;;;;;;20.98;77.49;98662.66;4957682;28;20564;-80
2023/09/14 10:43:39;;;;;;;4.00;3.60;;;;;;;20.97;78.45;98653.72;4957736;28;20628;-78
2023/09/14 10:46:07;;;;;;;4.30;3.67;;;;;;;20.89;77.97;98659.06;4957695;28;20298;-78
2023/09/14 10:48:35;;;;;;;4.53;3.93;;;;;;;20.90;77.31;98651.84;4957594;28;20210;-78
2023/09/14 10:51:03;;;;;;;4.57;3.67;;;;;;;20.67;78.35;98650.66;4957418;28;20238;-78
2023/09/14 10:53:30;;;;;;;5.20;3.90;;;;;;;20.63;78.54;98654.63;4959511;28;20207;-81
2023/09/14 10:55:57;;;;;;;5.80;4.50;;;;;;;20.69;77.30;98652.19;4958972;28;20215;-80
2023/09/14 10:58:24;;;;;;;5.60;4.03;;;;;;;20.81;77.41;98650.06;4958528;28;20215;-80
2023/09/14 11:00:58;;;;;;;5.33;4.33;;;;;;;20.99;76.92;98640.16;4957929;28;20239;-81
2023/09/14 11:03:25;;;;;;;4.50;3.70;;;;;;;21.14;76.09;98634.03;4958489;28;20298;-81
2023/09/14 11:05:53;;;;;;;5.77;4.07;;;;;;;21.14;74.07;98617.88;4958842;28;20302;-80
2023/09/14 11:08:21;;;;;;;6.27;4.40;;;;;;;21.20;73.81;98621.78;4958772;28;20225;-80
2023/09/14 11:10:54;;;;;;;4.67;3.70;;;;;;;21.06;72.80;98608.94;4958118;28;20232;-80
2023/09/14 11:13:33;;;;;;;6.03;4.17;;;;;;;21.07;74.28;98622.22;4958793;28;20222;-80
2023/09/14 11:16:13;;;;;;;4.00;3.60;;;;;;;21.08;75.33;98628.47;4958500;28;20218;-80
2023/09/14 11:18:54;;;;;;;5.33;4.13;;;;;;;21.00;74.47;98621.19;4959507;28;20638;-80
2023/09/14 11:21:45;;;;;;;4.90;3.50;;;;;;;20.85;74.58;98621.91;4958475;28;20231;-79
2023/09/14 11:24:16;;;;;;;4.73;3.10;;;;;;;20.85;75.53;98621.91;4958868;28;20223;-81
2023/09/14 11:26:47;;;;;;;6.73;4.70;;;;;;;20.90;76.05;98623.13;4958774;28;20235;-79
2023/09/14 11:29:14;;;;;;;6.53;4.27;;;;;;;21.02;75.84;98616.47;4958674;28;20215;-79